sensor_id;sensor_type;location;lat;lon;timestamp;temperature;humidity
584;HTU21D;27024;54.068;12.116;2022-10-28T00:00:31;14.15;115.22
584;HTU21D;27024;54.068;12.116;2022-10-28T00:03:00;14.18;115.05
584;HTU21D;27024;54.068;12.116;2022-10-28T00:05:28;14.15;115.06
584;HTU21D;27024;54.068;12.116;2022-10-28T00:07:58;14.17;114.89
584;HTU21D;27024;54.068;12.116;2022-10-28T00:10:28;14.14;114.96
584;HTU21D;27024;54.068;12.116;2022-10-28T00:12:55;14.13;115.06
584;HTU21D;27024;54.068;12.116;2022-10-28T00:15:21;14.11;114.80
584;HTU21D;27024;54.068;12.116;2022-10-28T00:17:48;13.96;115.32
584;HTU21D;27024;54.068;12.116;2022-10-28T00:20:15;14.00;115.40
584;HTU21D;27024;54.068;12.116;2022-10-28T00:22:42;13.95;115.52
584;HTU21D;27024;54.068;12.116;2022-10-28T00:25:09;13.97;115.46
584;HTU21D;27024;54.068;12.116;2022-10-28T00:27:36;13.98;115.33
584;HTU21D;27024;54.068;12.116;2022-10-28T00:30:06;13.91;115.54
584;HTU21D;27024;54.068;12.116;2022-10-28T00:32:33;13.95;115.62
584;HTU21D;27024;54.068;12.116;2022-10-28T00:35:00;13.91;115.70
584;HTU21D;27024;54.068;12.116;2022-10-28T00:37:26;13.90;115.79
584;HTU21D;27024;54.068;12.116;2022-10-28T00:39:53;13.82;115.76
584;HTU21D;27024;54.068;12.116;2022-10-28T00:42:20;13.84;115.69
584;HTU21D;27024;54.068;12.116;2022-10-28T00:44:57;13.75;115.37
584;HTU21D;27024;54.068;12.116;2022-10-28T00:50:11;13.69;115.40
584;HTU21D;27024;54.068;12.116;2022-10-28T00:52:39;13.68;115.57
584;HTU21D;27024;54.068;12.116;2022-10-28T00:55:07;13.73;115.64
584;HTU21D;27024;54.068;12.116;2022-10-28T00:57:36;13.68;115.71
584;HTU21D;27024;54.068;12.116;2022-10-28T01:00:05;13.64;115.94
584;HTU21D;27024;54.068;12.116;2022-10-28T01:02:36;13.67;116.01
584;HTU21D;27024;54.068;12.116;2022-10-28T01:05:06;13.67;116.03
584;HTU21D;27024;54.068;12.116;2022-10-28T01:07:33;13.58;115.99
584;HTU21D;27024;54.068;12.116;2022-10-28T01:10:00;13.55;116.23
584;HTU21D;27024;54.068;12.116;2022-10-28T01:12:36;13.56;116.06
584;HTU21D;27024;54.068;12.116;2022-10-28T01:20:51;13.52;115.77
584;HTU21D;27024;54.068;12.116;2022-10-28T01:29:20;13.47;116.04
584;HTU21D;27024;54.068;12.116;2022-10-28T01:34:38;13.41;115.95
584;HTU21D;27024;54.068;12.116;2022-10-28T01:37:29;13.38;115.88
584;HTU21D;27024;54.068;12.116;2022-10-28T01:45:33;13.32;116.41
584;HTU21D;27024;54.068;12.116;2022-10-28T01:51:18;13.47;115.99
584;HTU21D;27024;54.068;12.116;2022-10-28T01:53:50;13.52;116.06
584;HTU21D;27024;54.068;12.116;2022-10-28T01:56:26;13.61;115.96
584;HTU21D;27024;54.068;12.116;2022-10-28T01:58:55;13.68;115.78
584;HTU21D;27024;54.068;12.116;2022-10-28T02:01:23;13.68;115.80
584;HTU21D;27024;54.068;12.116;2022-10-28T02:03:52;13.71;115.54
584;HTU21D;27024;54.068;12.116;2022-10-28T02:06:22;13.76;115.31
584;HTU21D;27024;54.068;12.116;2022-10-28T02:14:26;13.69;115.61
584;HTU21D;27024;54.068;12.116;2022-10-28T02:17:01;13.76;115.30
584;HTU21D;27024;54.068;12.116;2022-10-28T02:19:53;13.71;115.37
584;HTU21D;27024;54.068;12.116;2022-10-28T02:22:35;13.77;115.35
584;HTU21D;27024;54.068;12.116;2022-10-28T02:25:20;13.76;115.17
584;HTU21D;27024;54.068;12.116;2022-10-28T02:27:55;13.79;114.89
584;HTU21D;27024;54.068;12.116;2022-10-28T02:30:31;13.73;115.07
584;HTU21D;27024;54.068;12.116;2022-10-28T02:33:02;13.77;114.96
584;HTU21D;27024;54.068;12.116;2022-10-28T02:35:36;13.78;114.93
584;HTU21D;27024;54.068;12.116;2022-10-28T02:38:10;13.81;114.75
584;HTU21D;27024;54.068;12.116;2022-10-28T02:40:42;13.86;114.45
584;HTU21D;27024;54.068;12.116;2022-10-28T02:43:12;13.95;114.09
584;HTU21D;27024;54.068;12.116;2022-10-28T02:45:43;13.89;114.34
584;HTU21D;27024;54.068;12.116;2022-10-28T02:48:17;13.97;114.25
584;HTU21D;27024;54.068;12.116;2022-10-28T02:50:52;13.96;114.13
584;HTU21D;27024;54.068;12.116;2022-10-28T02:53:29;13.92;114.47
584;HTU21D;27024;54.068;12.116;2022-10-28T02:55:59;13.96;114.35
584;HTU21D;27024;54.068;12.116;2022-10-28T02:58:28;13.99;114.22
584;HTU21D;27024;54.068;12.116;2022-10-28T03:00:55;13.99;114.16
584;HTU21D;27024;54.068;12.116;2022-10-28T03:03:22;13.98;114.07
584;HTU21D;27024;54.068;12.116;2022-10-28T03:05:50;14.01;113.96
584;HTU21D;27024;54.068;12.116;2022-10-28T03:08:17;13.96;114.15
584;HTU21D;27024;54.068;12.116;2022-10-28T03:10:44;14.01;114.03
584;HTU21D;27024;54.068;12.116;2022-10-28T03:13:11;14.09;113.54
584;HTU21D;27024;54.068;12.116;2022-10-28T03:15:37;14.06;113.58
584;HTU21D;27024;54.068;12.116;2022-10-28T03:18:04;13.99;113.93
584;HTU21D;27024;54.068;12.116;2022-10-28T03:20:31;14.07;113.63
584;HTU21D;27024;54.068;12.116;2022-10-28T03:22:57;14.08;113.60
584;HTU21D;27024;54.068;12.116;2022-10-28T03:25:24;14.05;113.54
584;HTU21D;27024;54.068;12.116;2022-10-28T03:27:51;14.07;113.50
584;HTU21D;27024;54.068;12.116;2022-10-28T03:30:18;14.05;113.66
584;HTU21D;27024;54.068;12.116;2022-10-28T03:32:44;14.09;113.37
584;HTU21D;27024;54.068;12.116;2022-10-28T03:35:11;14.04;113.57
584;HTU21D;27024;54.068;12.116;2022-10-28T03:37:42;13.99;113.89
584;HTU21D;27024;54.068;12.116;2022-10-28T03:40:10;14.00;113.78
584;HTU21D;27024;54.068;12.116;2022-10-28T03:42:39;13.89;114.30
584;HTU21D;27024;54.068;12.116;2022-10-28T03:45:07;13.91;114.35
584;HTU21D;27024;54.068;12.116;2022-10-28T03:47:35;13.89;114.57
584;HTU21D;27024;54.068;12.116;2022-10-28T03:50:01;13.89;114.60
584;HTU21D;27024;54.068;12.116;2022-10-28T03:52:28;13.91;114.48
584;HTU21D;27024;54.068;12.116;2022-10-28T03:54:55;13.88;114.69
584;HTU21D;27024;54.068;12.116;2022-10-28T03:57:22;13.88;114.60
584;HTU21D;27024;54.068;12.116;2022-10-28T03:59:48;13.88;114.74
584;HTU21D;27024;54.068;12.116;2022-10-28T04:02:15;13.90;114.51
584;HTU21D;27024;54.068;12.116;2022-10-28T04:04:42;13.82;114.48
584;HTU21D;27024;54.068;12.116;2022-10-28T04:07:08;13.77;114.45
584;HTU21D;27024;54.068;12.116;2022-10-28T04:09:35;13.73;114.64
584;HTU21D;27024;54.068;12.116;2022-10-28T04:12:02;13.68;114.63
584;HTU21D;27024;54.068;12.116;2022-10-28T04:14:34;13.64;114.59
584;HTU21D;27024;54.068;12.116;2022-10-28T04:17:00;13.56;114.80
584;HTU21D;27024;54.068;12.116;2022-10-28T04:19:27;13.51;115.02
584;HTU21D;27024;54.068;12.116;2022-10-28T04:21:54;13.48;115.12
584;HTU21D;27024;54.068;12.116;2022-10-28T04:24:20;13.48;114.99
584;HTU21D;27024;54.068;12.116;2022-10-28T04:26:47;13.47;115.48
584;HTU21D;27024;54.068;12.116;2022-10-28T04:29:14;13.48;115.37
584;HTU21D;27024;54.068;12.116;2022-10-28T04:31:41;13.40;115.33
584;HTU21D;27024;54.068;12.116;2022-10-28T04:34:07;13.38;115.60
584;HTU21D;27024;54.068;12.116;2022-10-28T04:36:34;13.23;115.70
584;HTU21D;27024;54.068;12.116;2022-10-28T04:39:01;13.21;115.89
584;HTU21D;27024;54.068;12.116;2022-10-28T04:41:28;13.16;115.80
584;HTU21D;27024;54.068;12.116;2022-10-28T04:43:54;13.15;115.80
584;HTU21D;27024;54.068;12.116;2022-10-28T04:46:21;13.16;115.93
584;HTU21D;27024;54.068;12.116;2022-10-28T04:48:48;13.16;115.95
584;HTU21D;27024;54.068;12.116;2022-10-28T04:51:15;13.22;115.89
584;HTU21D;27024;54.068;12.116;2022-10-28T04:53:41;13.23;115.60
584;HTU21D;27024;54.068;12.116;2022-10-28T04:56:08;13.21;115.38
584;HTU21D;27024;54.068;12.116;2022-10-28T04:58:35;13.18;115.51
584;HTU21D;27024;54.068;12.116;2022-10-28T05:01:06;13.18;115.45
584;HTU21D;27024;54.068;12.116;2022-10-28T05:03:33;13.18;115.54
584;HTU21D;27024;54.068;12.116;2022-10-28T05:06:00;13.06;115.61
584;HTU21D;27024;54.068;12.116;2022-10-28T05:08:27;13.05;115.70
584;HTU21D;27024;54.068;12.116;2022-10-28T05:10:54;13.07;115.70
584;HTU21D;27024;54.068;12.116;2022-10-28T05:13:21;13.01;115.99
584;HTU21D;27024;54.068;12.116;2022-10-28T05:15:48;13.03;115.85
584;HTU21D;27024;54.068;12.116;2022-10-28T05:18:15;13.01;115.84
584;HTU21D;27024;54.068;12.116;2022-10-28T05:20:43;13.02;115.57
584;HTU21D;27024;54.068;12.116;2022-10-28T05:23:10;12.94;115.83
584;HTU21D;27024;54.068;12.116;2022-10-28T05:25:37;12.91;116.16
584;HTU21D;27024;54.068;12.116;2022-10-28T05:28:04;12.95;116.04
584;HTU21D;27024;54.068;12.116;2022-10-28T05:30:31;12.87;116.23
584;HTU21D;27024;54.068;12.116;2022-10-28T05:33:01;12.88;116.51
584;HTU21D;27024;54.068;12.116;2022-10-28T05:35:29;12.94;116.57
584;HTU21D;27024;54.068;12.116;2022-10-28T05:37:56;12.95;116.54
584;HTU21D;27024;54.068;12.116;2022-10-28T05:40:23;13.05;116.31
584;HTU21D;27024;54.068;12.116;2022-10-28T05:42:50;12.94;116.38
584;HTU21D;27024;54.068;12.116;2022-10-28T05:45:18;13.03;116.50
584;HTU21D;27024;54.068;12.116;2022-10-28T05:47:47;13.05;116.35
584;HTU21D;27024;54.068;12.116;2022-10-28T05:50:16;13.11;116.12
584;HTU21D;27024;54.068;12.116;2022-10-28T05:52:51;13.20;115.91
584;HTU21D;27024;54.068;12.116;2022-10-28T05:55:19;13.09;116.44
584;HTU21D;27024;54.068;12.116;2022-10-28T05:57:48;13.10;116.80
584;HTU21D;27024;54.068;12.116;2022-10-28T06:00:17;13.15;116.70
584;HTU21D;27024;54.068;12.116;2022-10-28T06:02:44;13.10;116.48
584;HTU21D;27024;54.068;12.116;2022-10-28T06:05:13;13.17;116.37
584;HTU21D;27024;54.068;12.116;2022-10-28T06:07:40;13.09;116.40
584;HTU21D;27024;54.068;12.116;2022-10-28T06:10:09;13.12;116.62
584;HTU21D;27024;54.068;12.116;2022-10-28T06:12:36;13.23;116.61
584;HTU21D;27024;54.068;12.116;2022-10-28T06:15:03;13.17;116.61
584;HTU21D;27024;54.068;12.116;2022-10-28T06:17:30;13.23;116.88
584;HTU21D;27024;54.068;12.116;2022-10-28T06:19:57;13.30;116.95
584;HTU21D;27024;54.068;12.116;2022-10-28T06:22:23;13.30;116.66
584;HTU21D;27024;54.068;12.116;2022-10-28T06:24:50;13.34;116.69
584;HTU21D;27024;54.068;12.116;2022-10-28T06:27:17;13.33;116.70
584;HTU21D;27024;54.068;12.116;2022-10-28T06:29:43;13.35;116.70
584;HTU21D;27024;54.068;12.116;2022-10-28T06:32:10;13.37;116.71
584;HTU21D;27024;54.068;12.116;2022-10-28T06:34:37;13.41;116.67
584;HTU21D;27024;54.068;12.116;2022-10-28T06:37:05;13.46;116.60
584;HTU21D;27024;54.068;12.116;2022-10-28T06:39:33;13.49;116.54
584;HTU21D;27024;54.068;12.116;2022-10-28T06:42:00;13.58;116.41
584;HTU21D;27024;54.068;12.116;2022-10-28T06:44:26;13.60;116.23
584;HTU21D;27024;54.068;12.116;2022-10-28T06:46:57;13.62;116.29
584;HTU21D;27024;54.068;12.116;2022-10-28T06:49:24;13.70;116.17
584;HTU21D;27024;54.068;12.116;2022-10-28T06:51:50;13.71;116.12
584;HTU21D;27024;54.068;12.116;2022-10-28T06:54:17;13.75;115.96
584;HTU21D;27024;54.068;12.116;2022-10-28T06:56:46;13.79;115.73
584;HTU21D;27024;54.068;12.116;2022-10-28T06:59:12;13.78;115.87
584;HTU21D;27024;54.068;12.116;2022-10-28T07:01:39;13.85;115.65
584;HTU21D;27024;54.068;12.116;2022-10-28T07:04:10;13.81;115.67
584;HTU21D;27024;54.068;12.116;2022-10-28T07:06:38;13.84;115.72
584;HTU21D;27024;54.068;12.116;2022-10-28T07:09:05;13.92;115.66
584;HTU21D;27024;54.068;12.116;2022-10-28T07:11:32;13.94;115.50
584;HTU21D;27024;54.068;12.116;2022-10-28T07:13:59;14.08;115.13
584;HTU21D;27024;54.068;12.116;2022-10-28T07:16:26;14.13;114.87
584;HTU21D;27024;54.068;12.116;2022-10-28T07:18:52;14.13;114.80
584;HTU21D;27024;54.068;12.116;2022-10-28T07:21:19;14.21;114.63
584;HTU21D;27024;54.068;12.116;2022-10-28T07:23:49;14.18;114.45
584;HTU21D;27024;54.068;12.116;2022-10-28T07:26:16;14.21;114.61
584;HTU21D;27024;54.068;12.116;2022-10-28T07:28:43;14.34;114.80
584;HTU21D;27024;54.068;12.116;2022-10-28T07:31:10;14.34;113.98
584;HTU21D;27024;54.068;12.116;2022-10-28T07:33:43;14.45;113.57
584;HTU21D;27024;54.068;12.116;2022-10-28T07:36:10;14.71;113.72
584;HTU21D;27024;54.068;12.116;2022-10-28T07:38:37;14.74;112.71
584;HTU21D;27024;54.068;12.116;2022-10-28T07:41:05;14.87;112.07
584;HTU21D;27024;54.068;12.116;2022-10-28T07:43:36;14.98;111.19
584;HTU21D;27024;54.068;12.116;2022-10-28T07:46:04;15.04;110.78
584;HTU21D;27024;54.068;12.116;2022-10-28T07:48:35;15.06;110.75
584;HTU21D;27024;54.068;12.116;2022-10-28T07:51:03;15.07;110.62
584;HTU21D;27024;54.068;12.116;2022-10-28T07:53:31;15.13;110.71
584;HTU21D;27024;54.068;12.116;2022-10-28T07:56:01;15.27;109.60
584;HTU21D;27024;54.068;12.116;2022-10-28T07:58:28;15.37;109.67
584;HTU21D;27024;54.068;12.116;2022-10-28T08:00:55;15.61;108.60
584;HTU21D;27024;54.068;12.116;2022-10-28T08:03:27;15.77;108.10
584;HTU21D;27024;54.068;12.116;2022-10-28T08:06:12;16.05;106.66
584;HTU21D;27024;54.068;12.116;2022-10-28T08:08:46;16.41;105.60
584;HTU21D;27024;54.068;12.116;2022-10-28T08:11:16;16.42;105.11
584;HTU21D;27024;54.068;12.116;2022-10-28T08:13:45;16.49;105.08
584;HTU21D;27024;54.068;12.116;2022-10-28T08:16:13;16.61;104.83
584;HTU21D;27024;54.068;12.116;2022-10-28T08:18:40;16.43;105.68
584;HTU21D;27024;54.068;12.116;2022-10-28T08:21:08;16.49;105.64
584;HTU21D;27024;54.068;12.116;2022-10-28T08:23:36;16.84;103.70
584;HTU21D;27024;54.068;12.116;2022-10-28T08:26:04;17.06;102.62
584;HTU21D;27024;54.068;12.116;2022-10-28T08:28:31;16.71;103.39
584;HTU21D;27024;54.068;12.116;2022-10-28T08:31:03;16.70;103.48
584;HTU21D;27024;54.068;12.116;2022-10-28T08:33:36;16.31;105.51
584;HTU21D;27024;54.068;12.116;2022-10-28T08:36:04;16.45;104.92
584;HTU21D;27024;54.068;12.116;2022-10-28T08:38:31;16.66;104.13
584;HTU21D;27024;54.068;12.116;2022-10-28T08:41:11;16.59;103.82
584;HTU21D;27024;54.068;12.116;2022-10-28T08:43:59;16.56;104.22
584;HTU21D;27024;54.068;12.116;2022-10-28T08:49:36;16.46;104.70
584;HTU21D;27024;54.068;12.116;2022-10-28T08:52:15;16.37;105.37
584;HTU21D;27024;54.068;12.116;2022-10-28T08:54:52;16.39;105.11
584;HTU21D;27024;54.068;12.116;2022-10-28T09:00:29;16.64;103.95
584;HTU21D;27024;54.068;12.116;2022-10-28T09:05:40;17.07;102.12
584;HTU21D;27024;54.068;12.116;2022-10-28T09:08:30;18.05;97.02
584;HTU21D;27024;54.068;12.116;2022-10-28T09:13:55;19.52;90.93
584;HTU21D;27024;54.068;12.116;2022-10-28T09:16:45;20.19;87.83
584;HTU21D;27024;54.068;12.116;2022-10-28T09:25:10;20.35;84.81
584;HTU21D;27024;54.068;12.116;2022-10-28T09:27:46;20.62;84.25
584;HTU21D;27024;54.068;12.116;2022-10-28T09:35:31;20.66;84.66
584;HTU21D;27024;54.068;12.116;2022-10-28T09:38:23;20.42;85.73
584;HTU21D;27024;54.068;12.116;2022-10-28T09:40:55;20.55;84.83
584;HTU21D;27024;54.068;12.116;2022-10-28T09:43:30;20.36;85.17
584;HTU21D;27024;54.068;12.116;2022-10-28T09:46:19;20.59;85.36
584;HTU21D;27024;54.068;12.116;2022-10-28T09:48:49;20.66;84.83
584;HTU21D;27024;54.068;12.116;2022-10-28T09:51:45;20.96;83.97
584;HTU21D;27024;54.068;12.116;2022-10-28T09:54:13;20.95;84.01
584;HTU21D;27024;54.068;12.116;2022-10-28T09:56:40;20.95;82.27
584;HTU21D;27024;54.068;12.116;2022-10-28T09:59:11;21.02;81.39
584;HTU21D;27024;54.068;12.116;2022-10-28T10:01:39;20.80;83.26
584;HTU21D;27024;54.068;12.116;2022-10-28T10:04:27;20.20;85.87
584;HTU21D;27024;54.068;12.116;2022-10-28T10:06:58;20.56;84.59
584;HTU21D;27024;54.068;12.116;2022-10-28T10:09:28;20.60;83.86
584;HTU21D;27024;54.068;12.116;2022-10-28T10:11:59;20.70;83.99
584;HTU21D;27024;54.068;12.116;2022-10-28T10:14:48;20.87;84.26
584;HTU21D;27024;54.068;12.116;2022-10-28T10:17:23;20.54;84.29
584;HTU21D;27024;54.068;12.116;2022-10-28T10:19:58;20.55;85.38
584;HTU21D;27024;54.068;12.116;2022-10-28T10:22:29;20.81;83.13
584;HTU21D;27024;54.068;12.116;2022-10-28T10:24:56;20.78;84.25
584;HTU21D;27024;54.068;12.116;2022-10-28T10:27:24;20.70;84.68
584;HTU21D;27024;54.068;12.116;2022-10-28T10:29:52;20.79;83.52
584;HTU21D;27024;54.068;12.116;2022-10-28T10:32:32;21.19;82.40
584;HTU21D;27024;54.068;12.116;2022-10-28T10:35:06;21.35;80.99
584;HTU21D;27024;54.068;12.116;2022-10-28T10:37:44;21.53;81.65
584;HTU21D;27024;54.068;12.116;2022-10-28T10:40:25;21.95;78.63
584;HTU21D;27024;54.068;12.116;2022-10-28T10:42:53;22.17;76.31
584;HTU21D;27024;54.068;12.116;2022-10-28T10:45:39;22.41;75.73
584;HTU21D;27024;54.068;12.116;2022-10-28T10:48:13;22.95;71.53
584;HTU21D;27024;54.068;12.116;2022-10-28T10:50:48;23.09;70.49
584;HTU21D;27024;54.068;12.116;2022-10-28T10:53:29;23.06;70.71
584;HTU21D;27024;54.068;12.116;2022-10-28T10:55:59;23.30;70.17
584;HTU21D;27024;54.068;12.116;2022-10-28T10:58:30;23.08;69.10
584;HTU21D;27024;54.068;12.116;2022-10-28T11:01:00;23.18;68.90
584;HTU21D;27024;54.068;12.116;2022-10-28T11:03:29;24.03;64.20
584;HTU21D;27024;54.068;12.116;2022-10-28T11:05:59;24.18;63.08
584;HTU21D;27024;54.068;12.116;2022-10-28T11:08:46;23.15;68.17
584;HTU21D;27024;54.068;12.116;2022-10-28T11:11:18;23.05;67.99
584;HTU21D;27024;54.068;12.116;2022-10-28T11:13:47;23.74;64.89
584;HTU21D;27024;54.068;12.116;2022-10-28T11:16:22;24.58;61.09
584;HTU21D;27024;54.068;12.116;2022-10-28T11:18:51;24.41;61.62
584;HTU21D;27024;54.068;12.116;2022-10-28T11:29:43;24.17;62.82
584;HTU21D;27024;54.068;12.116;2022-10-28T11:32:23;24.98;59.76
584;HTU21D;27024;54.068;12.116;2022-10-28T11:35:06;24.78;60.61
584;HTU21D;27024;54.068;12.116;2022-10-28T11:46:29;24.57;61.85
584;HTU21D;27024;54.068;12.116;2022-10-28T11:58:26;23.94;65.84
584;HTU21D;27024;54.068;12.116;2022-10-28T12:06:15;23.36;68.46
584;HTU21D;27024;54.068;12.116;2022-10-28T12:11:34;23.11;70.29
584;HTU21D;27024;54.068;12.116;2022-10-28T12:19:45;23.20;70.16
584;HTU21D;27024;54.068;12.116;2022-10-28T12:22:25;22.95;71.56
584;HTU21D;27024;54.068;12.116;2022-10-28T12:24:54;23.07;71.85
584;HTU21D;27024;54.068;12.116;2022-10-28T12:27:28;23.07;72.38
584;HTU21D;27024;54.068;12.116;2022-10-28T12:30:00;23.05;72.80
584;HTU21D;27024;54.068;12.116;2022-10-28T12:32:31;22.99;73.92
584;HTU21D;27024;54.068;12.116;2022-10-28T12:35:19;23.14;70.81
584;HTU21D;27024;54.068;12.116;2022-10-28T12:38:01;22.80;70.45
584;HTU21D;27024;54.068;12.116;2022-10-28T12:40:42;22.97;68.49
584;HTU21D;27024;54.068;12.116;2022-10-28T12:45:53;22.41;69.16
584;HTU21D;27024;54.068;12.116;2022-10-28T12:48:37;22.41;70.38
584;HTU21D;27024;54.068;12.116;2022-10-28T12:51:16;22.69;69.82
584;HTU21D;27024;54.068;12.116;2022-10-28T12:53:50;22.52;70.29
584;HTU21D;27024;54.068;12.116;2022-10-28T12:56:35;22.42;71.06
584;HTU21D;27024;54.068;12.116;2022-10-28T12:59:06;22.65;70.36
584;HTU21D;27024;54.068;12.116;2022-10-28T13:01:37;22.53;70.22
584;HTU21D;27024;54.068;12.116;2022-10-28T13:04:04;22.28;72.12
584;HTU21D;27024;54.068;12.116;2022-10-28T13:09:18;22.26;73.09
584;HTU21D;27024;54.068;12.116;2022-10-28T13:12:04;22.52;72.04
584;HTU21D;27024;54.068;12.116;2022-10-28T13:27:57;22.34;74.65
584;HTU21D;27024;54.068;12.116;2022-10-28T13:30:25;22.20;75.44
584;HTU21D;27024;54.068;12.116;2022-10-28T13:33:08;22.27;75.30
584;HTU21D;27024;54.068;12.116;2022-10-28T13:35:39;22.39;75.31
584;HTU21D;27024;54.068;12.116;2022-10-28T13:38:10;22.44;74.92
584;HTU21D;27024;54.068;12.116;2022-10-28T13:43:03;22.62;73.75
584;HTU21D;27024;54.068;12.116;2022-10-28T13:45:44;22.57;73.84
584;HTU21D;27024;54.068;12.116;2022-10-28T13:48:44;22.71;73.24
584;HTU21D;27024;54.068;12.116;2022-10-28T13:58:56;22.75;73.55
584;HTU21D;27024;54.068;12.116;2022-10-28T14:01:51;22.62;74.36
584;HTU21D;27024;54.068;12.116;2022-10-28T14:04:40;22.67;74.60
584;HTU21D;27024;54.068;12.116;2022-10-28T14:09:39;22.22;74.86
584;HTU21D;27024;54.068;12.116;2022-10-28T14:12:17;22.08;74.64
584;HTU21D;27024;54.068;12.116;2022-10-28T14:18:06;21.88;75.86
584;HTU21D;27024;54.068;12.116;2022-10-28T14:21:04;21.67;76.92
584;HTU21D;27024;54.068;12.116;2022-10-28T14:26:03;21.72;77.98
584;HTU21D;27024;54.068;12.116;2022-10-28T14:42:09;20.75;87.02
584;HTU21D;27024;54.068;12.116;2022-10-28T14:52:37;20.25;90.31
584;HTU21D;27024;54.068;12.116;2022-10-28T14:55:19;20.28;90.01
584;HTU21D;27024;54.068;12.116;2022-10-28T14:57:46;20.03;92.06
584;HTU21D;27024;54.068;12.116;2022-10-28T15:00:17;20.06;91.36
584;HTU21D;27024;54.068;12.116;2022-10-28T15:02:45;19.83;92.98
584;HTU21D;27024;54.068;12.116;2022-10-28T15:05:20;19.72;93.70
584;HTU21D;27024;54.068;12.116;2022-10-28T15:07:47;19.77;93.39
584;HTU21D;27024;54.068;12.116;2022-10-28T15:10:17;19.71;93.75
584;HTU21D;27024;54.068;12.116;2022-10-28T15:12:45;19.56;94.83
584;HTU21D;27024;54.068;12.116;2022-10-28T15:15:28;19.41;95.53
584;HTU21D;27024;54.068;12.116;2022-10-28T15:17:56;19.41;95.64
584;HTU21D;27024;54.068;12.116;2022-10-28T15:20:32;19.28;96.07
584;HTU21D;27024;54.068;12.116;2022-10-28T15:23:20;19.21;96.61
584;HTU21D;27024;54.068;12.116;2022-10-28T15:26:10;18.99;97.75
584;HTU21D;27024;54.068;12.116;2022-10-28T15:28:38;18.88;98.23
584;HTU21D;27024;54.068;12.116;2022-10-28T15:31:06;18.94;98.32
584;HTU21D;27024;54.068;12.116;2022-10-28T15:33:38;18.83;98.64
584;HTU21D;27024;54.068;12.116;2022-10-28T15:36:14;18.64;98.97
584;HTU21D;27024;54.068;12.116;2022-10-28T15:38:57;18.53;99.84
584;HTU21D;27024;54.068;12.116;2022-10-28T15:41:49;18.34;100.59
584;HTU21D;27024;54.068;12.116;2022-10-28T15:44:36;18.06;102.58
584;HTU21D;27024;54.068;12.116;2022-10-28T15:50:42;18.14;102.13
584;HTU21D;27024;54.068;12.116;2022-10-28T15:52:47;18.02;102.66
584;HTU21D;27024;54.068;12.116;2022-10-28T15:57:54;17.91;103.06
584;HTU21D;27024;54.068;12.116;2022-10-28T16:00:27;17.91;103.25
584;HTU21D;27024;54.068;12.116;2022-10-28T16:11:17;17.45;105.14
584;HTU21D;27024;54.068;12.116;2022-10-28T16:13:47;17.26;105.20
584;HTU21D;27024;54.068;12.116;2022-10-28T16:16:22;17.23;105.11
584;HTU21D;27024;54.068;12.116;2022-10-28T16:19:07;17.20;105.08
584;HTU21D;27024;54.068;12.116;2022-10-28T16:21:34;17.14;105.63
584;HTU21D;27024;54.068;12.116;2022-10-28T16:24:02;17.19;105.59
584;HTU21D;27024;54.068;12.116;2022-10-28T16:26:30;17.17;106.42
584;HTU21D;27024;54.068;12.116;2022-10-28T16:28:58;17.19;105.93
584;HTU21D;27024;54.068;12.116;2022-10-28T16:31:26;17.13;106.75
584;HTU21D;27024;54.068;12.116;2022-10-28T16:33:56;17.02;107.09
584;HTU21D;27024;54.068;12.116;2022-10-28T16:36:23;16.90;107.28
584;HTU21D;27024;54.068;12.116;2022-10-28T16:38:51;16.78;107.73
584;HTU21D;27024;54.068;12.116;2022-10-28T16:41:18;16.84;107.65
584;HTU21D;27024;54.068;12.116;2022-10-28T16:43:45;16.81;107.88
584;HTU21D;27024;54.068;12.116;2022-10-28T16:46:12;16.74;107.89
584;HTU21D;27024;54.068;12.116;2022-10-28T16:48:40;16.78;107.09
584;HTU21D;27024;54.068;12.116;2022-10-28T16:51:14;16.79;107.11
584;HTU21D;27024;54.068;12.116;2022-10-28T16:53:43;16.82;106.97
584;HTU21D;27024;54.068;12.116;2022-10-28T16:56:16;16.78;107.17
584;HTU21D;27024;54.068;12.116;2022-10-28T16:58:43;16.79;107.79
584;HTU21D;27024;54.068;12.116;2022-10-28T17:01:14;16.81;107.28
584;HTU21D;27024;54.068;12.116;2022-10-28T17:03:43;16.74;107.02
584;HTU21D;27024;54.068;12.116;2022-10-28T17:06:09;16.69;107.25
584;HTU21D;27024;54.068;12.116;2022-10-28T17:08:36;16.67;107.07
584;HTU21D;27024;54.068;12.116;2022-10-28T17:11:23;16.84;106.43
584;HTU21D;27024;54.068;12.116;2022-10-28T17:13:49;16.63;107.31
584;HTU21D;27024;54.068;12.116;2022-10-28T17:16:16;16.74;107.09
584;HTU21D;27024;54.068;12.116;2022-10-28T17:18:43;16.69;107.31
584;HTU21D;27024;54.068;12.116;2022-10-28T17:21:10;16.81;107.20
584;HTU21D;27024;54.068;12.116;2022-10-28T17:23:38;16.82;107.33
584;HTU21D;27024;54.068;12.116;2022-10-28T17:26:05;16.79;107.27
584;HTU21D;27024;54.068;12.116;2022-10-28T17:28:31;16.91;107.05
584;HTU21D;27024;54.068;12.116;2022-10-28T17:31:06;16.96;106.81
584;HTU21D;27024;54.068;12.116;2022-10-28T17:33:33;16.96;106.69
584;HTU21D;27024;54.068;12.116;2022-10-28T17:36:04;16.86;107.34
584;HTU21D;27024;54.068;12.116;2022-10-28T17:38:31;16.86;107.09
584;HTU21D;27024;54.068;12.116;2022-10-28T17:40:58;16.82;107.46
584;HTU21D;27024;54.068;12.116;2022-10-28T17:43:25;16.79;107.45
584;HTU21D;27024;54.068;12.116;2022-10-28T17:46:01;16.62;108.08
584;HTU21D;27024;54.068;12.116;2022-10-28T17:48:29;16.66;108.08
584;HTU21D;27024;54.068;12.116;2022-10-28T17:50:55;16.60;108.43
584;HTU21D;27024;54.068;12.116;2022-10-28T17:53:22;16.62;108.31
584;HTU21D;27024;54.068;12.116;2022-10-28T17:56:00;16.67;107.85
584;HTU21D;27024;54.068;12.116;2022-10-28T17:58:27;16.59;107.98
584;HTU21D;27024;54.068;12.116;2022-10-28T18:01:00;16.51;108.43
584;HTU21D;27024;54.068;12.116;2022-10-28T18:03:27;16.45;108.52
584;HTU21D;27024;54.068;12.116;2022-10-28T18:06:01;16.45;108.61
584;HTU21D;27024;54.068;12.116;2022-10-28T18:08:37;16.44;108.65
584;HTU21D;27024;54.068;12.116;2022-10-28T18:11:05;16.41;109.18
584;HTU21D;27024;54.068;12.116;2022-10-28T18:13:35;16.46;109.17
584;HTU21D;27024;54.068;12.116;2022-10-28T18:16:06;16.50;108.70
584;HTU21D;27024;54.068;12.116;2022-10-28T18:18:34;16.54;108.34
584;HTU21D;27024;54.068;12.116;2022-10-28T18:21:09;16.49;108.49
584;HTU21D;27024;54.068;12.116;2022-10-28T18:23:36;16.56;108.27
584;HTU21D;27024;54.068;12.116;2022-10-28T18:26:05;16.58;108.35
584;HTU21D;27024;54.068;12.116;2022-10-28T18:28:34;16.64;107.95
584;HTU21D;27024;54.068;12.116;2022-10-28T18:31:06;16.57;108.14